createdAt,value
2018-07-20T00:01:43.688Z,4.20
2018-07-20T00:04:15.262Z,3.33
2018-07-20T00:06:43.533Z,3.50
2018-07-20T00:09:12.808Z,4.67
2018-07-20T00:11:41.772Z,4.73
2018-07-20T00:14:12.823Z,4.00
2018-07-20T00:16:42.939Z,4.10
2018-07-20T00:19:11.042Z,4.97
2018-07-20T00:21:40.451Z,3.80
2018-07-20T00:24:10.364Z,3.70
2018-07-20T00:26:39.109Z,3.40
2018-07-20T00:29:07.154Z,5.83
2018-07-20T00:31:35.237Z,5.63
2018-07-20T00:34:07.139Z,4.30
2018-07-20T00:36:36.016Z,4.03
2018-07-20T00:39:05.961Z,3.93
2018-07-20T00:41:34.732Z,3.80
2018-07-20T00:44:04.489Z,5.60
2018-07-20T00:46:32.661Z,4.60
2018-07-20T00:49:00.830Z,4.17
2018-07-20T00:51:29.214Z,5.47
2018-07-20T00:53:58.931Z,3.73
2018-07-20T00:56:27.030Z,3.70
2018-07-20T00:58:55.074Z,4.67
2018-07-20T01:01:23.253Z,3.40
2018-07-20T01:03:52.144Z,3.73
2018-07-20T01:06:21.410Z,4.70
2018-07-20T01:08:49.884Z,4.23
2018-07-20T01:11:18.521Z,5.13
2018-07-20T01:13:46.777Z,7.80
2018-07-20T01:16:15.352Z,4.43
2018-07-20T01:18:44.646Z,6.30
2018-07-20T01:21:14.012Z,4.70
2018-07-20T01:23:42.501Z,4.10
2018-07-20T01:26:12.219Z,6.10
2018-07-20T01:28:43.966Z,4.13
2018-07-20T01:31:12.026Z,3.90
2018-07-20T01:33:40.136Z,4.07
2018-07-20T01:36:11.629Z,4.77
2018-07-20T01:38:39.700Z,5.10
2018-07-20T01:41:08.178Z,4.90
2018-07-20T01:43:36.348Z,4.67
2018-07-20T01:46:07.442Z,4.43
2018-07-20T01:48:36.515Z,4.87
2018-07-20T01:51:05.749Z,4.70
2018-07-20T01:53:33.761Z,4.97
2018-07-20T01:56:03.711Z,7.07
2018-07-20T01:58:32.037Z,4.67
2018-07-20T02:01:00.476Z,4.60
2018-07-20T02:03:31.280Z,4.07
2018-07-20T02:06:01.387Z,4.60
2018-07-20T02:18:13.340Z,4.20
2018-07-20T02:20:43.273Z,5.23
2018-07-20T02:23:11.922Z,5.33
2018-07-20T02:25:41.026Z,4.17
2018-07-20T02:28:10.357Z,4.47
2018-07-20T02:30:38.921Z,3.90
2018-07-20T02:33:07.670Z,4.47
2018-07-20T02:35:36.106Z,4.37
2018-07-20T02:47:51.158Z,4.47
2018-07-20T02:50:19.382Z,4.70
2018-07-20T02:52:47.959Z,4.40
2018-07-20T02:55:16.487Z,5.40
2018-07-20T02:57:44.617Z,5.00
2018-07-20T03:00:16.046Z,5.10
2018-07-20T03:02:44.323Z,5.40
2018-07-20T03:05:13.726Z,4.80
2018-07-20T03:07:43.037Z,5.20
2018-07-20T03:10:14.230Z,5.33
2018-07-20T03:12:44.715Z,4.77
2018-07-20T03:15:14.957Z,5.73
2018-07-20T03:17:43.100Z,5.73
2018-07-20T03:20:12.833Z,5.30
2018-07-20T03:22:41.585Z,5.70
2018-07-20T03:25:12.196Z,5.80
2018-07-20T03:27:40.508Z,5.27
2018-07-20T03:30:13.183Z,5.40
2018-07-20T03:32:45.906Z,5.13
2018-07-20T03:35:18.359Z,5.20
2018-07-20T03:37:47.517Z,6.07
2018-07-20T03:40:16.102Z,5.10
2018-07-20T03:42:44.631Z,6.53
2018-07-20T03:45:12.780Z,5.57
2018-07-20T03:47:42.324Z,7.47
2018-07-20T03:50:12.507Z,4.97
2018-07-20T03:52:40.540Z,5.50
2018-07-20T03:55:09.273Z,5.50
2018-07-20T03:57:37.553Z,5.27
2018-07-20T04:00:09.484Z,5.03
2018-07-20T04:02:40.656Z,4.90
2018-07-20T04:05:12.241Z,5.07
2018-07-20T04:07:42.313Z,6.13
2018-07-20T04:10:13.123Z,6.17
2018-07-20T04:12:44.314Z,5.63
2018-07-20T04:15:15.433Z,6.47
2018-07-20T04:17:45.487Z,5.50
2018-07-20T04:20:16.107Z,4.87
2018-07-20T04:22:45.486Z,5.63
2018-07-20T04:25:15.400Z,6.67
2018-07-20T04:27:43.481Z,6.47
2018-07-20T04:30:15.890Z,6.03
2018-07-20T04:32:46.506Z,5.50
2018-07-20T04:35:15.925Z,6.13
2018-07-20T04:37:43.932Z,7.00
2018-07-20T04:40:14.557Z,6.30
2018-07-20T04:42:44.170Z,6.10
2018-07-20T04:45:13.178Z,6.70
2018-07-20T04:47:41.467Z,6.70
2018-07-20T04:50:12.082Z,5.90
2018-07-20T04:52:42.778Z,5.80
2018-07-20T04:55:14.033Z,6.70
2018-07-20T04:57:45.812Z,6.00
2018-07-20T05:00:20.946Z,7.30
2018-07-20T05:02:51.709Z,5.80
2018-07-20T05:05:23.671Z,6.90
2018-07-20T05:07:54.515Z,5.30
2018-07-20T05:10:24.493Z,5.20
2018-07-20T05:12:54.987Z,5.97
2018-07-20T05:15:26.931Z,5.90
2018-07-20T05:18:00.081Z,5.63
2018-07-20T05:20:28.495Z,5.10
2018-07-20T05:22:58.737Z,5.13
2018-07-20T05:25:30.249Z,5.60
2018-07-20T05:28:00.769Z,4.87
2018-07-20T05:30:29.474Z,5.20
2018-07-20T05:32:59.299Z,6.80
2018-07-20T05:35:27.384Z,5.70
2018-07-20T05:37:55.417Z,5.57
2018-07-20T05:40:25.750Z,6.13
2018-07-20T05:42:53.777Z,5.87
2018-07-20T05:45:22.490Z,6.03
2018-07-20T05:47:54.503Z,9.17
2018-07-20T05:50:26.400Z,6.17
2018-07-20T05:52:57.499Z,5.17
2018-07-20T05:55:25.696Z,5.50
2018-07-20T05:57:54.240Z,5.80
2018-07-20T06:00:23.761Z,5.73
2018-07-20T06:02:55.624Z,6.87
2018-07-20T06:05:28.665Z,6.50
2018-07-20T06:07:58.744Z,5.10
2018-07-20T06:10:29.347Z,6.40
2018-07-20T06:13:00.851Z,5.63
2018-07-20T06:15:30.171Z,6.17
2018-07-20T06:18:01.382Z,5.47
2018-07-20T06:20:33.563Z,5.10
2018-07-20T06:23:04.645Z,5.67
2018-07-20T06:25:34.261Z,5.40
2018-07-20T06:28:04.487Z,6.03
2018-07-20T06:30:34.190Z,5.83
2018-07-20T06:33:03.301Z,5.43
2018-07-20T06:35:34.260Z,5.73
2018-07-20T06:38:06.070Z,5.37
2018-07-20T06:40:37.316Z,5.87
2018-07-20T06:43:08.955Z,5.27
2018-07-20T06:45:42.302Z,5.80
2018-07-20T06:48:14.438Z,5.60
2018-07-20T06:50:45.476Z,5.70
2018-07-20T06:53:16.942Z,5.23
2018-07-20T06:55:52.488Z,6.03
2018-07-20T06:58:22.704Z,7.60
2018-07-20T07:00:54.639Z,5.00
2018-07-20T07:03:24.376Z,4.43
2018-07-20T07:05:53.274Z,6.40
2018-07-20T07:08:25.442Z,4.97
2018-07-20T07:10:55.363Z,6.27
2018-07-20T07:13:23.639Z,4.90
2018-07-20T07:15:55.155Z,5.80
2018-07-20T07:18:27.244Z,8.87
2018-07-20T07:20:57.809Z,5.33
2018-07-20T07:23:27.871Z,5.40
2018-07-20T07:26:00.385Z,4.70
2018-07-20T07:28:33.961Z,5.20
2018-07-20T07:31:05.675Z,4.53
2018-07-20T07:33:38.863Z,5.80
2018-07-20T07:36:10.762Z,5.03
2018-07-20T07:38:43.710Z,6.37
2018-07-20T07:41:16.550Z,5.60
2018-07-20T07:43:48.015Z,5.63
2018-07-20T07:46:21.401Z,5.70
2018-07-20T07:48:52.180Z,5.37
2018-07-20T07:51:24.772Z,5.33
2018-07-20T07:53:57.045Z,4.60
2018-07-20T07:56:29.674Z,4.47
2018-07-20T07:59:01.302Z,5.73
2018-07-20T08:01:32.204Z,4.40
2018-07-20T08:04:05.864Z,9.00
2018-07-20T08:06:40.595Z,5.83
2018-07-20T08:09:14.977Z,5.20
2018-07-20T08:11:47.868Z,5.70
2018-07-20T08:14:20.063Z,6.53
2018-07-20T08:16:53.468Z,4.50
2018-07-20T08:19:26.502Z,4.43
2018-07-20T08:21:57.777Z,4.70
2018-07-20T08:24:28.916Z,5.30
2018-07-20T08:27:00.210Z,4.60
2018-07-20T08:29:32.138Z,5.20
2018-07-20T08:32:03.426Z,4.93
2018-07-20T08:34:35.517Z,5.27
2018-07-20T08:37:11.183Z,5.50
2018-07-20T08:39:45.718Z,4.50
2018-07-20T08:42:19.037Z,4.60
2018-07-20T08:44:51.125Z,5.53
2018-07-20T08:47:24.002Z,5.60
2018-07-20T08:49:56.146Z,4.67
2018-07-20T08:52:27.900Z,4.40
2018-07-20T08:54:59.312Z,4.33
2018-07-20T08:57:33.669Z,5.40
2018-07-20T09:00:05.376Z,3.90
2018-07-20T09:02:38.560Z,4.43
2018-07-20T09:05:09.527Z,3.80
2018-07-20T09:07:40.581Z,3.93
2018-07-20T09:10:13.754Z,3.87
2018-07-20T09:12:45.131Z,4.73
2018-07-20T09:15:17.767Z,4.63
2018-07-20T09:17:47.331Z,4.67
2018-07-20T09:20:23.073Z,3.50
2018-07-20T09:22:57.697Z,4.60
2018-07-20T09:25:30.489Z,4.53
2018-07-20T09:28:03.361Z,4.53
2018-07-20T09:30:37.445Z,4.27
2018-07-20T09:33:10.069Z,4.40
2018-07-20T09:35:42.659Z,4.20
2018-07-20T09:38:14.633Z,4.30
2018-07-20T09:40:47.602Z,3.60
2018-07-20T09:43:19.515Z,4.53
2018-07-20T09:45:52.038Z,4.67
2018-07-20T09:48:24.825Z,5.83
2018-07-20T09:50:56.560Z,3.97
2018-07-20T09:53:27.058Z,4.13
2018-07-20T09:55:57.370Z,3.60
2018-07-20T09:58:28.249Z,3.33
2018-07-20T10:01:00.022Z,3.80
2018-07-20T10:03:30.264Z,4.07
2018-07-20T10:06:05.756Z,3.70
2018-07-20T10:08:39.901Z,5.33
2018-07-20T10:11:13.793Z,4.47
2018-07-20T10:13:47.524Z,4.23
2018-07-20T10:16:20.053Z,6.60
2018-07-20T10:18:51.927Z,4.40
2018-07-20T10:21:27.441Z,5.10
2018-07-20T10:23:59.481Z,3.83
2018-07-20T10:26:35.106Z,4.27
2018-07-20T10:29:11.430Z,3.80
2018-07-20T10:31:44.609Z,3.37
2018-07-20T10:40:11.146Z,4.50
2018-07-20T10:42:44.881Z,3.30
2018-07-20T10:45:19.018Z,4.13
2018-07-20T10:47:54.781Z,5.00
2018-07-20T10:50:27.858Z,4.57
2018-07-20T11:05:55.856Z,3.40
2018-07-20T11:08:28.540Z,3.83
2018-07-20T11:11:01.384Z,4.80
2018-07-20T11:13:32.377Z,3.80
2018-07-20T11:16:03.790Z,3.60
2018-07-20T11:18:34.872Z,4.30
2018-07-20T11:21:07.089Z,4.07
2018-07-20T11:23:42.816Z,3.90
2018-07-20T11:26:17.107Z,3.70
2018-07-20T11:28:47.794Z,4.83
2018-07-20T11:31:20.106Z,3.77
2018-07-20T11:33:53.854Z,4.40
2018-07-20T11:36:26.872Z,4.07
2018-07-20T11:51:52.614Z,3.50
2018-07-20T12:07:23.590Z,3.23
2018-07-20T12:09:56.238Z,3.17
2018-07-20T12:12:27.892Z,4.43
2018-07-20T12:14:59.220Z,4.30
2018-07-20T12:17:31.393Z,5.23
2018-07-20T12:20:03.481Z,3.30
2018-07-20T12:22:39.198Z,4.23
2018-07-20T12:25:11.979Z,5.37
2018-07-20T12:27:44.221Z,4.47
2018-07-20T12:30:16.905Z,3.43
2018-07-20T12:32:49.219Z,3.43
2018-07-20T12:35:22.007Z,5.53
2018-07-20T12:37:54.434Z,3.57
2018-07-20T12:40:28.165Z,3.27
2018-07-20T12:42:59.639Z,3.00
2018-07-20T12:45:31.424Z,3.63
2018-07-20T12:48:04.264Z,3.50
2018-07-20T12:50:36.787Z,4.10
2018-07-20T12:53:08.349Z,3.20
2018-07-20T12:55:41.461Z,3.57
2018-07-20T13:14:27.086Z,3.30
2018-07-20T13:17:00.933Z,3.30
2018-07-20T13:19:33.377Z,3.23
2018-07-20T13:22:06.369Z,3.30
2018-07-20T13:24:38.304Z,3.20
2018-07-20T13:27:09.909Z,3.20
2018-07-20T13:29:45.167Z,4.63
2018-07-20T13:32:18.469Z,4.10
2018-07-20T13:34:51.762Z,3.33
2018-07-20T13:37:26.411Z,3.03
2018-07-20T13:39:57.163Z,4.43
2018-07-20T13:42:28.230Z,5.20
2018-07-20T13:45:01.038Z,12.63
2018-07-20T13:47:32.619Z,5.10
2018-07-20T13:50:02.991Z,4.07
2018-07-20T13:52:33.076Z,3.20
2018-07-20T13:55:03.590Z,3.37
2018-07-20T13:57:33.330Z,5.57
2018-07-20T14:00:05.083Z,3.97
2018-07-20T14:02:36.040Z,3.40
2018-07-20T14:05:06.428Z,3.63
2018-07-20T14:16:23.449Z,3.43
2018-07-20T14:18:55.534Z,3.97
2018-07-20T14:21:27.830Z,3.63
2018-07-20T14:23:59.021Z,4.10
2018-07-20T14:26:33.157Z,3.20
2018-07-20T14:29:04.302Z,3.03
2018-07-20T14:31:36.186Z,3.60
2018-07-20T14:34:07.797Z,4.57
2018-07-20T14:36:40.689Z,2.73
2018-07-20T14:39:14.540Z,4.07
2018-07-20T14:41:46.325Z,3.40
2018-07-20T14:44:17.978Z,2.73
2018-07-20T14:46:50.857Z,4.20
2018-07-20T14:49:21.012Z,3.10
2018-07-20T14:51:50.720Z,2.90
2018-07-20T14:54:21.361Z,3.90
2018-07-20T14:56:51.941Z,5.60
2018-07-20T14:59:24.507Z,3.13
2018-07-20T15:01:55.055Z,3.77
2018-07-20T15:04:29.438Z,2.50
2018-07-20T15:07:00.576Z,2.87
2018-07-20T15:09:31.054Z,6.60
2018-07-20T15:12:02.009Z,3.37
2018-07-20T15:14:32.572Z,2.67
2018-07-20T15:17:03.752Z,2.70
2018-07-20T15:19:35.224Z,3.00
2018-07-20T15:22:06.347Z,6.77
2018-07-20T15:24:37.616Z,4.30
2018-07-20T15:27:11.091Z,3.13
2018-07-20T15:29:43.087Z,4.37
2018-07-20T15:32:14.843Z,3.50
2018-07-20T15:34:45.388Z,3.30
2018-07-20T15:37:18.067Z,2.90
2018-07-20T15:39:49.879Z,3.00
2018-07-20T15:42:21.249Z,3.00
2018-07-20T15:44:52.227Z,4.77
2018-07-20T15:47:23.453Z,3.83
2018-07-20T15:49:53.816Z,4.73
2018-07-20T15:54:55.975Z,2.80
2018-07-20T15:57:30.343Z,3.60
2018-07-20T16:00:01.569Z,3.40
2018-07-20T16:02:33.887Z,2.97
2018-07-20T16:05:03.966Z,4.13
2018-07-20T16:07:36.563Z,3.60
2018-07-20T16:10:11.285Z,3.30
2018-07-20T16:12:41.610Z,3.60
2018-07-20T16:15:12.633Z,3.87
2018-07-20T16:17:44.444Z,3.80
2018-07-20T16:20:16.852Z,3.70
2018-07-20T16:49:21.152Z,4.40
2018-07-20T16:51:53.717Z,4.80
2018-07-20T16:54:24.864Z,4.63
2018-07-20T16:56:56.369Z,3.90
2018-07-20T16:59:27.489Z,6.23
2018-07-20T17:01:59.088Z,3.73
2018-07-20T17:04:34.262Z,3.77
2018-07-20T17:07:05.794Z,5.30
2018-07-20T17:09:40.362Z,4.50
2018-07-20T17:12:14.186Z,4.93
2018-07-20T17:14:46.501Z,5.50
2018-07-20T17:17:22.577Z,5.20
2018-07-20T17:19:53.864Z,3.97
2018-07-20T17:22:30.149Z,4.17
2018-07-20T17:25:01.188Z,3.87
2018-07-20T17:27:36.016Z,4.77
2018-07-20T17:30:10.783Z,3.77
2018-07-20T17:32:43.815Z,4.50
2018-07-20T17:44:56.078Z,4.30
2018-07-20T17:47:30.314Z,4.40
2018-07-20T17:50:03.500Z,5.70
2018-07-20T17:52:38.624Z,4.50
2018-07-20T17:55:09.172Z,4.57
2018-07-20T17:57:40.308Z,4.37
2018-07-20T18:00:14.878Z,4.07
2018-07-20T18:12:31.581Z,4.80
2018-07-20T18:15:04.646Z,5.17
2018-07-20T18:17:35.890Z,4.90
2018-07-20T18:20:07.083Z,5.73
2018-07-20T18:22:38.899Z,5.03
2018-07-20T18:54:40.140Z,4.43
2018-07-20T18:57:12.653Z,5.20
2018-07-20T18:59:47.230Z,4.30
2018-07-20T19:02:19.336Z,5.20
2018-07-20T19:04:52.110Z,4.33
2018-07-20T19:07:23.166Z,4.23
2018-07-20T19:09:55.030Z,5.23
2018-07-20T19:12:28.781Z,5.93
2018-07-20T19:15:01.303Z,4.80
2018-07-20T19:17:32.647Z,5.00
2018-07-20T19:22:58.149Z,5.12
2018-07-20T19:25:26.991Z,5.40
2018-07-20T19:27:55.727Z,5.43
2018-07-20T19:30:23.777Z,5.67
2018-07-20T19:32:51.866Z,6.27
2018-07-20T19:35:19.896Z,5.10
2018-07-20T19:37:48.311Z,5.90
2018-07-20T19:40:16.847Z,5.60
2018-07-20T19:42:44.946Z,6.27
2018-07-20T19:45:13.172Z,5.70
2018-07-20T19:47:41.799Z,5.27
2018-07-20T19:50:10.981Z,5.67
2018-07-20T19:52:39.592Z,6.20
2018-07-20T19:55:07.757Z,5.90
2018-07-20T19:57:36.759Z,6.20
2018-07-20T20:00:06.249Z,6.57
2018-07-20T20:02:34.343Z,7.10
2018-07-20T20:05:02.802Z,6.20
2018-07-20T20:07:30.850Z,5.90
2018-07-20T20:09:59.294Z,6.33
2018-07-20T20:12:27.321Z,6.10
2018-07-20T20:14:57.163Z,7.87
2018-07-20T20:17:25.296Z,6.53
2018-07-20T20:19:53.388Z,7.20
2018-07-20T20:22:21.449Z,6.13
2018-07-20T20:24:49.774Z,6.43
2018-07-20T20:27:18.427Z,5.43
2018-07-20T20:29:46.607Z,7.20
2018-07-20T20:32:14.634Z,5.30
2018-07-20T20:34:43.619Z,5.80
2018-07-20T20:37:11.722Z,5.43
2018-07-20T20:39:40.652Z,5.50
2018-07-20T20:42:08.719Z,5.13
2018-07-20T20:44:37.497Z,5.90
2018-07-20T20:47:05.568Z,5.93
2018-07-20T20:49:35.014Z,6.13
2018-07-20T20:52:03.361Z,7.57
2018-07-20T20:54:31.415Z,6.73
2018-07-20T20:57:00.807Z,5.67
2018-07-20T20:59:28.854Z,6.53
2018-07-20T21:01:57.227Z,6.53
2018-07-20T21:04:25.304Z,6.63
2018-07-20T21:06:53.417Z,5.70
2018-07-20T21:09:21.441Z,6.03
2018-07-20T21:11:49.646Z,8.17
2018-07-20T21:14:17.690Z,6.20
2018-07-20T21:16:45.763Z,7.10
2018-07-20T21:19:14.414Z,6.03
2018-07-20T21:21:42.874Z,6.83
2018-07-20T21:24:11.536Z,8.40
2018-07-20T21:26:40.454Z,6.30
2018-07-20T21:29:09.765Z,6.17
2018-07-20T21:31:37.746Z,6.73
2018-07-20T21:34:05.759Z,6.77
2018-07-20T21:36:33.826Z,6.77
2018-07-20T21:39:03.071Z,6.23
2018-07-20T21:41:32.650Z,6.83
2018-07-20T21:44:01.763Z,7.40
2018-07-20T21:46:30.542Z,7.03
2018-07-20T21:48:59.095Z,6.67
2018-07-20T21:51:27.988Z,10.17
2018-07-20T21:53:58.052Z,6.80
2018-07-20T21:56:26.100Z,7.63
2018-07-20T21:58:54.941Z,6.33
2018-07-20T22:01:23.391Z,7.07
2018-07-20T22:03:51.528Z,7.20
2018-07-20T22:06:19.610Z,7.03
2018-07-20T22:08:47.627Z,7.27
2018-07-20T22:11:15.849Z,7.30
2018-07-20T22:13:43.894Z,6.80
2018-07-20T22:16:12.324Z,6.70
2018-07-20T22:18:40.467Z,8.63
2018-07-20T22:21:08.540Z,7.37
2018-07-20T22:23:36.564Z,7.27
2018-07-20T22:26:05.509Z,7.37
2018-07-20T22:28:33.580Z,7.30
2018-07-20T22:31:02.200Z,7.40
2018-07-20T22:33:30.316Z,6.30
2018-07-20T22:35:58.625Z,7.97
2018-07-20T22:38:26.757Z,6.83
2018-07-20T22:40:55.363Z,8.00
2018-07-20T22:43:23.886Z,7.20
2018-07-20T22:45:51.946Z,7.27
2018-07-20T22:48:20.882Z,7.00
2018-07-20T22:50:49.117Z,7.60
2018-07-20T22:53:17.245Z,7.47
2018-07-20T22:55:45.519Z,6.10
2018-07-20T22:58:14.448Z,7.97
2018-07-20T23:00:42.459Z,7.50
2018-07-20T23:03:22.059Z,6.97
2018-07-20T23:05:56.516Z,8.53
2018-07-20T23:08:24.839Z,7.63
2018-07-20T23:10:53.948Z,8.80
2018-07-20T23:13:22.077Z,9.00
2018-07-20T23:15:50.706Z,10.70
2018-07-20T23:18:19.354Z,8.80
2018-07-20T23:20:47.389Z,8.50
2018-07-20T23:23:16.261Z,7.63
2018-07-20T23:25:44.254Z,8.10
2018-07-20T23:28:12.429Z,7.40
2018-07-20T23:30:40.504Z,8.20
2018-07-20T23:33:08.621Z,7.73
2018-07-20T23:35:36.846Z,8.43
2018-07-20T23:38:05.628Z,8.20
2018-07-20T23:40:34.461Z,8.80
2018-07-20T23:43:02.494Z,8.13
2018-07-20T23:45:30.617Z,8.30
2018-07-20T23:47:58.656Z,7.73
2018-07-20T23:50:26.691Z,8.17
2018-07-20T23:52:54.765Z,8.23
2018-07-20T23:55:22.783Z,8.70
2018-07-20T23:57:50.777Z,7.97
